This is the latest recevied weather packets stored in our database for station/object AE5EW. If no packets are shown the sender has not sent any weather packets the latest 10 day(s).
| Time | Temp. | Humidity | Pressure | Rain* | Wind** | Luminosity | Snow |
|---|---|---|---|---|---|---|---|
| 1788041376 | 30° C | 73% | 1018.6 hPa | 0 mm | - | - | - |
| 1788041076 | 30.56° C | 71% | 1018.6 hPa | 0 mm | - | - | - |
| 1788040774 | 30.56° C | 71% | 1018.5 hPa | 0 mm | - | - | - |
| 1788040468 | 30.56° C | 70% | 1018.6 hPa | 0 mm | - | - | - |
| 1788040165 | 31.11° C | 69% | 1018.7 hPa | 0 mm | - | - | - |
| 1788039864 | 31.11° C | 70% | 1018.6 hPa | 0 mm | - | - | - |
| 1788039559 | 30.56° C | 71% | 1018.6 hPa | 0 mm | - | - | - |
| 1788039254 | 30.56° C | 70% | 1018.5 hPa | 0 mm | - | - | - |
| 1788038949 | 30.56° C | 69% | 1018.7 hPa | 0 mm | - | - | - |
| 1788038645 | 30.56° C | 70% | 1018.8 hPa | 0 mm | - | - | - |
| 1788038344 | 30.56° C | 71% | 1018.8 hPa | 0 mm | - | - | - |
| 1788038040 | 30.56° C | 72% | 1018.6 hPa | 0 mm | - | - | - |
| 1788037739 | 29.44° C | 73% | 1018.7 hPa | 0 mm | - | - | - |
| 1788037434 | 30° C | 72% | 1018.7 hPa | 0 mm | - | - | - |
| 1788037133 | 30° C | 71% | 1018.6 hPa | 0 mm | - | - | - |
| 1788036828 | 30.56° C | 72% | 1018.4 hPa | 0 mm | - | - | - |
| 1788036525 | 30.56° C | 72% | 1018.7 hPa | 0 mm | - | - | - |
| 1788036225 | 31.11° C | 72% | 1018.6 hPa | 0 mm | - | - | - |
| 1788035921 | 31.11° C | 70% | 1018.6 hPa | 0 mm | - | - | - |
| 1788035620 | 30.56° C | 74% | 1018.8 hPa | 0 mm | - | - | - |
| 1788035315 | 30.56° C | 71% | 1018.7 hPa | 0 mm | - | - | - |
| 1788035011 | 30° C | 73% | 1018.9 hPa | 0 mm | - | - | - |
| 1788034707 | 29.44° C | 75% | 1019.1 hPa | 0 mm | - | - | - |
| 1788034403 | 28.89° C | 74% | 1019.1 hPa | 0 mm | - | - | - |
| 1788034099 | 27.78° C | 76% | 1019.2 hPa | 0 mm | - | - | - |
* Rain latest hour (hover to see other rain measurements)
** Current wind speed in m/s (hover to see current wind gust speed)